Time,TemperatureF,DewpointF,PressureIn,WindDirection,WindDirectionDegrees,WindSpeedMPH,WindSpeedGustMPH,Humidity,HourlyPrecipIn,Conditions,Clouds,dailyrainin,SoftwareType,DateUTC
2013-08-27 00:00:00,76.6,67.7,30.12,WNW,284,5.0,5.0,74,0.00,,---,0.00,VWS V14.01,2013-08-27 04:00:00,
2013-08-27 00:01:00,76.6,67.7,30.12,WNW,285,4.0,5.0,74,0.00,,---,0.00,VWS V14.01,2013-08-27 04:01:00,
2013-08-27 00:02:00,76.3,67.8,30.12,WNW,289,5.0,5.0,75,0.00,,---,0.00,VWS V14.01,2013-08-27 04:02:00,
2013-08-27 00:07:00,75.2,67.5,30.12,WNW,286,3.0,6.0,77,0.00,,---,0.00,VWS V14.01,2013-08-27 04:07:00,
2013-08-27 00:12:00,74.5,67.2,30.12,West,280,3.0,6.0,78,0.00,,---,0.00,VWS V14.01,2013-08-27 04:12:00,
2013-08-27 00:17:00,74.0,67.4,30.12,West,280,3.0,6.0,80,0.00,,---,0.00,VWS V14.01,2013-08-27 04:17:00,
2013-08-27 00:22:00,73.3,67.1,30.12,WNW,287,4.0,6.0,81,0.00,,---,0.00,VWS V14.01,2013-08-27 04:22:00,
2013-08-27 00:27:00,72.7,66.9,30.12,WNW,293,4.0,5.0,82,0.00,,---,0.00,VWS V14.01,2013-08-27 04:27:00,
2013-08-27 00:32:00,72.2,66.8,30.12,WNW,290,5.0,5.0,83,0.00,,---,0.00,VWS V14.01,2013-08-27 04:32:00,
2013-08-27 00:37:00,71.9,66.5,30.12,WNW,285,4.0,6.0,83,0.00,,---,0.00,VWS V14.01,2013-08-27 04:37:00,
2013-08-27 00:42:00,71.7,66.6,30.12,WNW,286,5.0,6.0,84,0.00,,---,0.00,VWS V14.01,2013-08-27 04:42:00,
2013-08-27 00:47:00,71.6,66.5,30.12,WNW,286,4.0,6.0,84,0.00,,---,0.00,VWS V14.01,2013-08-27 04:47:00,
2013-08-27 00:52:00,71.6,66.5,30.12,WNW,290,4.0,6.0,84,0.00,,---,0.00,VWS V14.01,2013-08-27 04:52:00,
2013-08-27 00:58:00,71.4,66.3,30.12,West,279,4.0,5.0,84,0.00,,---,0.00,VWS V14.01,2013-08-27 04:58:00,
2013-08-27 01:03:00,71.4,66.3,30.12,West,281,4.0,5.0,84,0.00,,---,0.00,VWS V14.01,2013-08-27 05:03:00,
2013-08-27 01:08:00,71.6,66.5,30.12,West,277,4.0,6.0,84,0.00,,---,0.00,VWS V14.01,2013-08-27 05:08:00,
2013-08-27 01:13:00,71.8,66.7,30.12,West,279,4.0,6.0,84,0.00,,---,0.00,VWS V14.01,2013-08-27 05:13:00,
2013-08-27 01:18:00,72.1,67.0,30.12,West,281,5.0,6.0,84,0.00,,---,0.00,VWS V14.01,2013-08-27 05:18:00,
2013-08-27 01:23:00,72.2,67.1,30.12,West,277,5.0,6.0,84,0.00,,---,0.00,VWS V14.01,2013-08-27 05:23:00,
2013-08-27 01:28:00,72.4,67.3,30.12,WNW,286,5.0,6.0,84,0.00,,---,0.00,VWS V14.01,2013-08-27 05:28:00,
2013-08-27 01:33:00,72.3,67.2,30.11,WNW,289,5.0,6.0,84,0.00,,---,0.00,VWS V14.01,2013-08-27 05:33:00,
2013-08-27 01:38:00,72.3,66.8,30.11,WNW,288,5.0,7.0,83,0.00,,---,0.00,VWS V14.01,2013-08-27 05:38:00,
2013-08-27 01:43:00,72.2,66.8,30.11,WNW,288,5.0,7.0,83,0.00,,---,0.00,VWS V14.01,2013-08-27 05:43:00,
2013-08-27 01:48:00,72.2,66.8,30.11,WNW,288,5.0,7.0,83,0.00,,---,0.00,VWS V14.01,2013-08-27 05:48:00,
2013-08-27 01:53:00,72.2,66.8,30.11,WNW,287,4.0,7.0,83,0.00,,---,0.00,VWS V14.01,2013-08-27 05:53:00,
2013-08-27 01:58:00,72.2,66.8,30.11,WNW,282,4.0,6.0,83,0.00,,---,0.00,VWS V14.01,2013-08-27 05:58:00,
2013-08-27 02:03:00,72.2,66.4,30.10,West,277,6.0,6.0,82,0.00,,---,0.00,VWS V14.01,2013-08-27 06:03:00,
2013-08-27 02:09:00,72.3,66.5,30.10,WNW,282,5.0,6.0,82,0.00,,---,0.00,VWS V14.01,2013-08-27 06:09:00,
2013-08-27 02:14:00,72.3,66.5,30.10,WNW,283,5.0,6.0,82,0.00,,---,0.00,VWS V14.01,2013-08-27 06:14:00,
2013-08-27 02:19:00,72.4,66.9,30.10,WNW,283,4.0,6.0,83,0.00,,---,0.00,VWS V14.01,2013-08-27 06:19:00,
2013-08-27 02:24:00,72.3,66.5,30.10,WNW,285,4.0,6.0,82,0.00,,---,0.00,VWS V14.01,2013-08-27 06:24:00,
2013-08-27 02:29:00,72.3,66.5,30.10,WNW,288,4.0,5.0,82,0.00,,---,0.00,VWS V14.01,2013-08-27 06:29:00,
2013-08-27 02:34:00,72.2,66.8,30.09,WNW,289,9.0,9.0,83,0.00,,---,0.00,VWS V14.01,2013-08-27 06:34:00,
2013-08-27 02:39:00,71.7,66.3,30.10,West,279,5.0,11.0,83,0.00,,---,0.00,VWS V14.01,2013-08-27 06:39:00,
2013-08-27 02:44:00,71.2,65.8,30.10,WNW,299,10.0,11.0,83,0.00,,---,0.00,VWS V14.01,2013-08-27 06:44:00,
2013-08-27 02:49:00,70.5,65.4,30.09,West,277,8.0,11.0,84,0.00,,---,0.00,VWS V14.01,2013-08-27 06:49:00,
2013-08-27 02:54:00,70.2,65.1,30.09,WNW,293,7.0,11.0,84,0.00,,---,0.00,VWS V14.01,2013-08-27 06:54:00,
2013-08-27 02:59:00,70.1,65.4,30.09,WNW,290,5.0,9.0,85,0.00,,---,0.00,VWS V14.01,2013-08-27 06:59:00,
2013-08-27 03:04:00,70.0,64.9,30.09,WNW,294,6.0,9.0,84,0.00,,---,0.00,VWS V14.01,2013-08-27 07:04:00,
2013-08-27 03:09:00,70.0,65.3,30.09,WNW,292,5.0,9.0,85,0.00,,---,0.00,VWS V14.01,2013-08-27 07:09:00,
2013-08-27 03:15:00,70.1,65.4,30.09,WNW,288,4.0,9.0,85,0.00,,---,0.00,VWS V14.01,2013-08-27 07:15:00,
2013-08-27 03:20:00,70.0,64.9,30.09,WNW,292,5.0,9.0,84,0.00,,---,0.00,VWS V14.01,2013-08-27 07:20:00,
2013-08-27 03:25:00,70.0,64.9,30.09,West,280,4.0,9.0,84,0.00,,---,0.00,VWS V14.01,2013-08-27 07:25:00,
2013-08-27 03:30:00,70.2,65.1,30.09,WNW,289,6.0,7.0,84,0.00,,---,0.00,VWS V14.01,2013-08-27 07:30:00,
2013-08-27 03:35:00,70.1,65.1,30.09,WNW,296,5.0,7.0,84,0.00,,---,0.00,VWS V14.01,2013-08-27 07:35:00,
2013-08-27 03:40:00,70.3,65.2,30.08,WNW,290,6.0,7.0,84,0.00,,---,0.00,VWS V14.01,2013-08-27 07:40:00,
2013-08-27 03:45:00,70.3,64.9,30.08,WNW,291,6.0,7.0,83,0.00,,---,0.00,VWS V14.01,2013-08-27 07:45:00,
2013-08-27 03:50:00,70.4,65.0,30.08,West,280,5.0,7.0,83,0.00,,---,0.00,VWS V14.01,2013-08-27 07:50:00,
2013-08-27 03:55:00,70.5,65.1,30.08,WNW,282,6.0,7.0,83,0.00,,---,0.00,VWS V14.01,2013-08-27 07:55:00,
2013-08-27 04:00:00,70.6,65.2,30.07,West,279,5.0,6.0,83,0.00,,---,0.00,VWS V14.01,2013-08-27 08:00:00,
2013-08-27 04:05:00,70.8,65.4,30.07,West,267,4.0,6.0,83,0.00,,---,0.00,VWS V14.01,2013-08-27 08:05:00,
2013-08-27 04:10:00,71.2,65.8,30.07,WNW,282,8.0,9.0,83,0.00,,---,0.00,VWS V14.01,2013-08-27 08:10:00,
2013-08-27 04:15:00,71.4,66.0,30.07,WNW,291,5.0,9.0,83,0.00,,---,0.00,VWS V14.01,2013-08-27 08:15:00,
2013-08-27 04:20:00,71.2,66.1,30.07,WNW,291,6.0,9.0,84,0.00,,---,0.00,VWS V14.01,2013-08-27 08:20:00,
2013-08-27 04:26:00,71.0,65.9,30.07,WNW,298,5.0,9.0,84,0.00,,---,0.00,VWS V14.01,2013-08-27 08:26:00,
2013-08-27 04:31:00,71.0,65.9,30.07,WNW,285,4.0,6.0,84,0.00,,---,0.00,VWS V14.01,2013-08-27 08:31:00,
2013-08-27 04:36:00,70.9,65.8,30.07,WNW,287,6.0,6.0,84,0.00,,---,0.00,VWS V14.01,2013-08-27 08:36:00,
2013-08-27 04:41:00,70.7,66.0,30.07,WNW,292,5.0,6.0,85,0.00,,---,0.00,VWS V14.01,2013-08-27 08:41:00,
2013-08-27 04:46:00,70.5,65.4,30.07,WNW,290,5.0,6.0,84,0.00,,---,0.00,VWS V14.01,2013-08-27 08:46:00,
2013-08-27 04:51:00,70.3,65.6,30.07,WNW,283,3.0,6.0,85,0.00,,---,0.00,VWS V14.01,2013-08-27 08:51:00,
2013-08-27 04:56:00,70.1,65.4,30.07,WNW,290,3.0,6.0,85,0.00,,---,0.00,VWS V14.01,2013-08-27 08:56:00,
2013-08-27 05:01:00,70.0,65.3,30.07,WNW,286,4.0,6.0,85,0.00,,---,0.00,VWS V14.01,2013-08-27 09:01:00,
2013-08-27 05:06:00,69.9,65.5,30.07,WNW,300,6.0,9.0,86,0.00,,---,0.00,VWS V14.01,2013-08-27 09:06:00,
2013-08-27 05:11:00,69.6,64.9,30.07,NW,313,6.0,10.0,85,0.00,,---,0.00,VWS V14.01,2013-08-27 09:11:00,
2013-08-27 05:16:00,69.3,64.6,30.07,NW,322,5.0,10.0,85,0.00,,---,0.00,VWS V14.01,2013-08-27 09:16:00,
2013-08-27 05:21:00,68.9,64.6,30.07,NW,306,4.0,10.0,86,0.00,,---,0.00,VWS V14.01,2013-08-27 09:21:00,
2013-08-27 05:26:00,68.6,64.2,30.07,NW,319,4.0,10.0,86,0.00,,---,0.00,VWS V14.01,2013-08-27 09:26:00,
2013-08-27 05:31:00,68.3,64.3,30.07,NW,321,4.0,6.0,87,0.00,,---,0.00,VWS V14.01,2013-08-27 09:31:00,
2013-08-27 05:36:00,68.1,64.1,30.07,NW,317,4.0,6.0,87,0.00,,---,0.00,VWS V14.01,2013-08-27 09:36:00,
2013-08-27 05:42:00,67.9,63.9,30.07,NW,308,5.0,7.0,87,0.00,,---,0.00,VWS V14.01,2013-08-27 09:42:00,
2013-08-27 05:47:00,67.7,64.0,30.07,NNW,331,7.0,7.0,88,0.00,,---,0.00,VWS V14.01,2013-08-27 09:47:00,
2013-08-27 05:52:00,67.6,63.9,30.07,NW,322,5.0,7.0,88,0.00,,---,0.00,VWS V14.01,2013-08-27 09:52:00,
2013-08-27 05:57:00,67.5,63.8,30.07,NW,307,5.0,7.0,88,0.00,,---,0.00,VWS V14.01,2013-08-27 09:57:00,
2013-08-27 06:02:00,67.5,63.8,30.07,NW,308,4.0,7.0,88,0.00,,---,0.00,VWS V14.01,2013-08-27 10:02:00,
2013-08-27 06:07:00,67.6,63.9,30.07,NW,306,5.0,7.0,88,0.00,,---,0.00,VWS V14.01,2013-08-27 10:07:00,
2013-08-27 06:12:00,67.7,64.3,30.07,WNW,303,5.0,7.0,89,0.00,,---,0.00,VWS V14.01,2013-08-27 10:12:00,
2013-08-27 06:17:00,67.8,64.4,30.07,WNW,293,5.0,7.0,89,0.00,,---,0.00,VWS V14.01,2013-08-27 10:17:00,
2013-08-27 06:22:00,67.9,64.5,30.07,NW,307,6.0,7.0,89,0.00,,---,0.00,VWS V14.01,2013-08-27 10:22:00,
2013-08-27 06:27:00,67.7,64.3,30.07,NW,305,5.0,7.0,89,0.00,,---,0.00,VWS V14.01,2013-08-27 10:27:00,
2013-08-27 06:32:00,67.6,63.9,30.07,NW,309,7.0,7.0,88,0.00,,---,0.00,VWS V14.01,2013-08-27 10:32:00,
2013-08-27 06:37:00,67.6,64.2,30.07,WNW,302,6.0,7.0,89,0.00,,---,0.00,VWS V14.01,2013-08-27 10:37:00,
2013-08-27 06:42:00,67.5,63.8,30.07,NW,306,6.0,7.0,88,0.00,,---,0.00,VWS V14.01,2013-08-27 10:42:00,
2013-08-27 06:47:00,67.6,63.9,30.07,NW,311,9.0,9.0,88,0.00,,---,0.00,VWS V14.01,2013-08-27 10:47:00,
2013-08-27 06:52:00,67.5,64.2,30.07,NW,310,6.0,9.0,89,0.00,,---,0.00,VWS V14.01,2013-08-27 10:52:00,
2013-08-27 06:57:00,67.5,64.2,30.07,NW,309,6.0,9.0,89,0.00,,---,0.00,VWS V14.01,2013-08-27 10:57:00,
2013-08-27 07:02:00,67.5,64.2,30.07,NNW,331,6.0,9.0,89,0.00,,---,0.00,VWS V14.01,2013-08-27 11:02:00,
2013-08-27 07:08:00,67.3,64.0,30.07,NW,323,6.0,9.0,89,0.00,,---,0.00,VWS V14.01,2013-08-27 11:08:00,
2013-08-27 07:13:00,67.2,63.8,30.07,NW,311,6.0,10.0,89,0.00,,---,0.00,VWS V14.01,2013-08-27 11:13:00,
2013-08-27 07:18:00,67.3,64.0,30.07,NW,304,5.0,10.0,89,0.00,,---,0.00,VWS V14.01,2013-08-27 11:18:00,
2013-08-27 07:23:00,67.6,64.6,30.07,NW,305,9.0,10.0,90,0.00,,---,0.00,VWS V14.01,2013-08-27 11:23:00,
2013-08-27 07:28:00,67.6,64.2,30.07,NW,306,10.0,10.0,89,0.00,,---,0.00,VWS V14.01,2013-08-27 11:28:00,
2013-08-27 07:33:00,67.8,64.4,30.07,WNW,297,10.0,11.0,89,0.00,,---,0.00,VWS V14.01,2013-08-27 11:33:00,
2013-08-27 07:38:00,67.9,64.5,30.08,NW,306,10.0,12.0,89,0.00,,---,0.00,VWS V14.01,2013-08-27 11:38:00,
2013-08-27 07:43:00,68.1,64.7,30.08,WNW,300,9.0,12.0,89,0.00,,---,0.00,VWS V14.01,2013-08-27 11:43:00,
2013-08-27 07:48:00,68.2,64.8,30.07,WNW,303,9.0,12.0,89,0.00,,---,0.00,VWS V14.01,2013-08-27 11:48:00,
2013-08-27 07:53:00,68.4,64.7,30.07,WNW,294,7.0,12.0,88,0.00,,---,0.00,VWS V14.01,2013-08-27 11:53:00,
2013-08-27 07:58:00,68.5,64.8,30.08,WNW,296,9.0,10.0,88,0.00,,---,0.00,VWS V14.01,2013-08-27 11:58:00,
2013-08-27 08:03:00,68.6,64.9,30.07,NW,305,7.0,12.0,88,0.00,,---,0.00,VWS V14.01,2013-08-27 12:03:00,
2013-08-27 08:08:00,68.6,64.9,30.07,WNW,288,10.0,12.0,88,0.00,,---,0.00,VWS V14.01,2013-08-27 12:08:00,
2013-08-27 08:13:00,68.9,65.2,30.07,WNW,298,7.0,12.0,88,0.00,,---,0.00,VWS V14.01,2013-08-27 12:13:00,
2013-08-27 08:18:00,68.8,64.8,30.07,WNW,288,9.0,12.0,87,0.00,,---,0.00,VWS V14.01,2013-08-27 12:18:00,
2013-08-27 08:24:00,68.9,64.9,30.07,WNW,295,7.0,12.0,87,0.00,,---,0.00,VWS V14.01,2013-08-27 12:24:00,
2013-08-27 08:29:00,69.2,65.2,30.07,WNW,300,9.0,10.0,87,0.00,,---,0.00,VWS V14.01,2013-08-27 12:29:00,
2013-08-27 08:34:00,69.3,65.3,30.07,WNW,283,10.0,10.0,87,0.00,,---,0.00,VWS V14.01,2013-08-27 12:34:00,
2013-08-27 08:39:00,69.5,65.1,30.07,NW,304,10.0,12.0,86,0.00,,---,0.00,VWS V14.01,2013-08-27 12:39:00,
2013-08-27 08:44:00,69.7,65.3,30.07,NW,304,9.0,14.0,86,0.00,,---,0.00,VWS V14.01,2013-08-27 12:44:00,
2013-08-27 08:49:00,69.9,65.5,30.08,WNW,297,7.0,14.0,86,0.00,,---,0.00,VWS V14.01,2013-08-27 12:49:00,
2013-08-27 08:54:00,70.2,65.8,30.08,WNW,303,8.0,14.0,86,0.00,,---,0.00,VWS V14.01,2013-08-27 12:54:00,
2013-08-27 08:59:00,70.3,65.9,30.08,WNW,296,6.0,11.0,86,0.00,,---,0.00,VWS V14.01,2013-08-27 12:59:00,
2013-08-27 09:04:00,70.4,65.7,30.08,WNW,297,9.0,12.0,85,0.00,,---,0.00,VWS V14.01,2013-08-27 13:04:00,
2013-08-27 09:09:00,70.7,66.0,30.07,WNW,286,10.0,12.0,85,0.00,,---,0.00,VWS V14.01,2013-08-27 13:09:00,
2013-08-27 09:14:00,71.0,66.3,30.07,WNW,302,9.0,12.0,85,0.00,,---,0.00,VWS V14.01,2013-08-27 13:14:00,
2013-08-27 09:19:00,71.3,66.2,30.07,WNW,298,6.0,12.0,84,0.00,,---,0.00,VWS V14.01,2013-08-27 13:19:00,
2013-08-27 09:24:00,71.9,66.5,30.07,WNW,298,6.0,12.0,83,0.00,,---,0.00,VWS V14.01,2013-08-27 13:24:00,
2013-08-27 09:29:00,72.4,66.9,30.08,WNW,286,5.0,6.0,83,0.00,,---,0.00,VWS V14.01,2013-08-27 13:29:00,
2013-08-27 09:34:00,73.0,67.2,30.08,WNW,298,6.0,10.0,82,0.00,,---,0.00,VWS V14.01,2013-08-27 13:34:00,
2013-08-27 09:39:00,73.6,67.4,30.08,WNW,296,5.0,10.0,81,0.00,,---,0.00,VWS V14.01,2013-08-27 13:39:00,
2013-08-27 09:45:00,74.1,67.9,30.07,West,272,8.0,10.0,81,0.00,,---,0.00,VWS V14.01,2013-08-27 13:45:00,
2013-08-27 09:50:00,74.8,68.2,30.07,West,267,5.0,10.0,80,0.00,,---,0.00,VWS V14.01,2013-08-27 13:50:00,
2013-08-27 09:55:00,75.2,67.9,30.07,West,269,6.0,10.0,78,0.00,,---,0.00,VWS V14.01,2013-08-27 13:55:00,
2013-08-27 10:00:00,75.6,68.3,30.07,West,278,5.0,9.0,78,0.00,,---,0.00,VWS V14.01,2013-08-27 14:00:00,
2013-08-27 10:05:00,75.9,67.8,30.08,WNW,301,6.0,10.0,76,0.00,,---,0.00,VWS V14.01,2013-08-27 14:05:00,
2013-08-27 10:10:00,76.1,67.2,30.08,WNW,301,9.0,10.0,74,0.00,,---,0.00,VWS V14.01,2013-08-27 14:10:00,
2013-08-27 10:15:00,76.4,67.1,30.08,NW,305,11.0,11.0,73,0.00,,---,0.00,VWS V14.01,2013-08-27 14:15:00,
2013-08-27 10:20:00,76.6,67.3,30.08,WNW,282,11.0,11.0,73,0.00,,---,0.00,VWS V14.01,2013-08-27 14:20:00,
2013-08-27 10:25:00,76.8,67.5,30.07,NW,309,11.0,11.0,73,0.00,,---,0.00,VWS V14.01,2013-08-27 14:25:00,
2013-08-27 10:30:00,76.9,66.8,30.08,WNW,297,11.0,14.0,71,0.00,,---,0.00,VWS V14.01,2013-08-27 14:30:00,
2013-08-27 10:35:00,77.0,66.5,30.08,NW,305,9.0,14.0,70,0.00,,---,0.00,VWS V14.01,2013-08-27 14:35:00,
2013-08-27 10:40:00,77.1,66.6,30.07,WNW,286,4.0,14.0,70,0.00,,---,0.00,VWS V14.01,2013-08-27 14:40:00,
2013-08-27 10:45:00,77.5,67.4,30.06,West,281,9.0,14.0,71,0.00,,---,0.00,VWS V14.01,2013-08-27 14:45:00,
2013-08-27 10:50:00,77.6,66.6,30.06,WNW,302,9.0,14.0,69,0.00,,---,0.00,VWS V14.01,2013-08-27 14:50:00,
2013-08-27 10:56:00,77.7,67.1,30.07,WNW,298,9.0,14.0,70,0.00,,---,0.00,VWS V14.01,2013-08-27 14:56:00,
2013-08-27 11:01:00,77.8,65.5,30.06,WNW,296,11.0,12.0,66,0.00,,---,0.00,VWS V14.01,2013-08-27 15:01:00,
2013-08-27 11:06:00,77.9,65.6,30.07,WNW,296,11.0,14.0,66,0.00,,---,0.00,VWS V14.01,2013-08-27 15:06:00,
2013-08-27 11:11:00,78.2,65.5,30.06,NW,311,9.0,14.0,65,0.00,,---,0.00,VWS V14.01,2013-08-27 15:11:00,
2013-08-27 11:16:00,78.4,65.7,30.06,WNW,286,7.0,14.0,65,0.00,,---,0.00,VWS V14.01,2013-08-27 15:16:00,
2013-08-27 11:21:00,78.5,65.8,30.06,West,281,12.0,14.0,65,0.00,,---,0.00,VWS V14.01,2013-08-27 15:21:00,
2013-08-27 11:26:00,78.5,65.8,30.05,West,278,7.0,14.0,65,0.00,,---,0.00,VWS V14.01,2013-08-27 15:26:00,
2013-08-27 11:31:00,78.6,65.9,30.05,West,265,10.0,10.0,65,0.00,,---,0.00,VWS V14.01,2013-08-27 15:31:00,
2013-08-27 11:36:00,78.8,65.6,30.05,West,259,8.0,11.0,64,0.00,,---,0.00,VWS V14.01,2013-08-27 15:36:00,
2013-08-27 11:41:00,79.1,64.5,30.05,SSW,211,2.0,11.0,61,0.00,,---,0.00,VWS V14.01,2013-08-27 15:41:00,
2013-08-27 11:46:00,79.1,65.4,30.05,WSW,252,2.0,11.0,63,0.00,,---,0.00,VWS V14.01,2013-08-27 15:46:00,
2013-08-27 11:51:00,79.8,66.1,30.05,South,186,4.0,11.0,63,0.00,,---,0.00,VWS V14.01,2013-08-27 15:51:00,
2013-08-27 11:56:00,79.7,65.5,30.05,West,267,4.0,11.0,62,0.00,,---,0.00,VWS V14.01,2013-08-27 15:56:00,
2013-08-27 12:01:00,80.0,65.4,30.05,SSW,202,8.0,10.0,61,0.00,,---,0.00,VWS V14.01,2013-08-27 16:01:00,
2013-08-27 12:06:00,80.8,66.6,30.05,SW,229,6.0,10.0,62,0.00,,---,0.00,VWS V14.01,2013-08-27 16:06:00,
2013-08-27 12:11:00,81.2,66.0,30.04,SSW,212,7.0,12.0,60,0.00,,---,0.00,VWS V14.01,2013-08-27 16:11:00,
2013-08-27 12:17:00,81.8,67.1,30.04,South,189,9.0,13.0,61,0.00,,---,0.00,VWS V14.01,2013-08-27 16:17:00,
2013-08-27 12:22:00,82.3,69.4,30.04,SW,215,11.0,14.0,65,0.00,,---,0.00,VWS V14.01,2013-08-27 16:22:00,
2013-08-27 12:27:00,82.4,69.0,30.04,SSW,205,7.0,15.0,64,0.00,,---,0.00,VWS V14.01,2013-08-27 16:27:00,
2013-08-27 12:32:00,82.5,69.6,30.04,SSW,202,8.0,14.0,65,0.00,,---,0.00,VWS V14.01,2013-08-27 16:32:00,
2013-08-27 12:37:00,82.6,69.7,30.04,SSW,197,13.0,15.0,65,0.00,,---,0.00,VWS V14.01,2013-08-27 16:37:00,
2013-08-27 12:42:00,82.6,69.7,30.04,SSW,199,13.0,16.0,65,0.00,,---,0.00,VWS V14.01,2013-08-27 16:42:00,
2013-08-27 12:47:00,82.2,68.4,30.04,SSW,208,10.0,18.0,63,0.00,,---,0.00,VWS V14.01,2013-08-27 16:47:00,
2013-08-27 12:52:00,82.2,69.7,30.04,SSW,198,9.0,18.0,66,0.00,,---,0.00,VWS V14.01,2013-08-27 16:52:00,
2013-08-27 12:57:00,82.2,69.3,30.03,SW,215,11.0,19.0,65,0.00,,---,0.00,VWS V14.01,2013-08-27 16:57:00,
2013-08-27 13:02:00,82.3,68.5,30.03,SSW,193,11.0,18.0,63,0.00,,---,0.00,VWS V14.01,2013-08-27 17:02:00,
2013-08-27 13:07:00,82.4,68.1,30.03,SW,219,9.0,18.0,62,0.00,,---,0.00,VWS V14.01,2013-08-27 17:07:00,
2013-08-27 13:12:00,82.4,68.6,30.03,SW,225,12.0,18.0,63,0.00,,---,0.00,VWS V14.01,2013-08-27 17:12:00,
2013-08-27 13:17:00,82.2,66.9,30.03,SW,215,12.0,18.0,60,0.00,,---,0.00,VWS V14.01,2013-08-27 17:17:00,
2013-08-27 13:22:00,82.2,67.4,30.04,SSW,196,12.0,18.0,61,0.00,,---,0.00,VWS V14.01,2013-08-27 17:22:00,
2013-08-27 13:27:00,82.4,67.6,30.04,SW,217,10.0,10.0,61,0.00,,---,0.00,VWS V14.01,2013-08-27 17:27:00,
2013-08-27 13:32:00,82.6,68.3,30.04,SW,232,10.0,17.0,62,0.00,,---,0.00,VWS V14.01,2013-08-27 17:32:00,
2013-08-27 13:38:00,82.6,67.3,30.04,SSW,197,11.0,19.0,60,0.00,,---,0.00,VWS V14.01,2013-08-27 17:38:00,
2013-08-27 13:43:00,82.8,68.5,30.04,SSW,213,12.0,19.0,62,0.00,,---,0.00,VWS V14.01,2013-08-27 17:43:00,
2013-08-27 13:48:00,83.0,68.2,30.04,SW,215,14.0,19.0,61,0.00,,---,0.00,VWS V14.01,2013-08-27 17:48:00,
2013-08-27 13:53:00,83.1,67.8,30.04,SSW,201,16.0,19.0,60,0.00,,---,0.00,VWS V14.01,2013-08-27 17:53:00,
2013-08-27 13:58:00,82.9,66.6,30.03,SW,217,13.0,17.0,58,0.00,,---,0.00,VWS V14.01,2013-08-27 17:58:00,
2013-08-27 14:03:00,83.0,67.2,30.03,SSW,205,17.0,20.0,59,0.00,,---,0.00,VWS V14.01,2013-08-27 18:03:00,
2013-08-27 14:08:00,82.9,67.6,30.03,SSW,198,11.0,21.0,60,0.00,,---,0.00,VWS V14.01,2013-08-27 18:08:00,
2013-08-27 14:13:00,82.6,67.3,30.03,South,188,19.0,21.0,60,0.00,,---,0.00,VWS V14.01,2013-08-27 18:13:00,
2013-08-27 14:18:00,82.6,67.3,30.03,SSW,209,18.0,22.0,60,0.00,,---,0.00,VWS V14.01,2013-08-27 18:18:00,
2013-08-27 14:23:00,82.4,68.1,30.03,SSW,211,12.0,25.0,62,0.00,,---,0.00,VWS V14.01,2013-08-27 18:23:00,
2013-08-27 14:28:00,82.4,69.0,30.02,SSW,204,18.0,22.0,64,0.00,,---,0.00,VWS V14.01,2013-08-27 18:28:00,
2013-08-27 14:33:00,82.6,70.1,30.02,SSW,211,20.0,22.0,66,0.00,,---,0.00,VWS V14.01,2013-08-27 18:33:00,
2013-08-27 14:38:00,82.2,68.8,30.02,SSW,211,17.0,22.0,64,0.00,,---,0.00,VWS V14.01,2013-08-27 18:38:00,
2013-08-27 14:43:00,82.2,68.8,30.02,SSW,209,13.0,23.0,64,0.00,,---,0.00,VWS V14.01,2013-08-27 18:43:00,
2013-08-27 14:48:00,82.4,69.0,30.02,SSW,195,14.0,23.0,64,0.00,,---,0.00,VWS V14.01,2013-08-27 18:48:00,
2013-08-27 14:54:00,82.4,68.6,30.02,SW,227,10.0,23.0,63,0.00,,---,0.00,VWS V14.01,2013-08-27 18:54:00,
2013-08-27 14:59:00,82.1,68.3,30.01,SSW,196,10.0,19.0,63,0.00,,---,0.00,VWS V14.01,2013-08-27 18:59:00,
2013-08-27 15:04:00,82.4,68.1,30.01,SW,219,13.0,21.0,62,0.00,,---,0.00,VWS V14.01,2013-08-27 19:04:00,
2013-08-27 15:09:00,82.5,68.6,30.01,WSW,238,15.0,21.0,63,0.00,,---,0.00,VWS V14.01,2013-08-27 19:09:00,
2013-08-27 15:14:00,82.3,68.0,30.01,SW,219,14.0,21.0,62,0.00,,---,0.00,VWS V14.01,2013-08-27 19:14:00,
2013-08-27 15:19:00,82.2,68.4,30.01,South,187,13.0,23.0,63,0.00,,---,0.00,VWS V14.01,2013-08-27 19:19:00,
2013-08-27 15:24:00,82.2,68.8,30.01,SSW,206,17.0,23.0,64,0.00,,---,0.00,VWS V14.01,2013-08-27 19:24:00,
2013-08-27 15:29:00,81.9,67.6,30.01,SW,220,11.0,15.0,62,0.00,,---,0.00,VWS V14.01,2013-08-27 19:29:00,
2013-08-27 15:34:00,81.9,67.6,30.00,SSW,196,12.0,20.0,62,0.00,,---,0.00,VWS V14.01,2013-08-27 19:34:00,
2013-08-27 15:39:00,81.9,67.6,30.00,SSW,199,22.0,22.0,62,0.00,,---,0.00,VWS V14.01,2013-08-27 19:39:00,
2013-08-27 15:44:00,81.9,67.6,30.00,SSW,212,16.0,24.0,62,0.00,,---,0.00,VWS V14.01,2013-08-27 19:44:00,
2013-08-27 15:49:00,81.6,67.8,30.00,South,186,15.0,24.0,63,0.00,,---,0.00,VWS V14.01,2013-08-27 19:49:00,
2013-08-27 15:54:00,81.9,68.1,30.00,SW,215,17.0,24.0,63,0.00,,---,0.00,VWS V14.01,2013-08-27 19:54:00,
2013-08-27 15:59:00,82.0,67.7,30.00,SW,229,14.0,20.0,62,0.00,,---,0.00,VWS V14.01,2013-08-27 19:59:00,
2013-08-27 16:04:00,82.0,66.8,30.00,SW,234,15.0,21.0,60,0.00,,---,0.00,VWS V14.01,2013-08-27 20:04:00,
2013-08-27 16:09:00,81.8,66.6,30.00,SSW,205,11.0,22.0,60,0.00,,---,0.00,VWS V14.01,2013-08-27 20:09:00,
2013-08-27 16:15:00,81.9,66.7,29.99,SW,233,12.0,22.0,60,0.00,,---,0.00,VWS V14.01,2013-08-27 20:15:00,
2013-08-27 16:20:00,82.0,67.7,29.99,SSW,208,16.0,22.0,62,0.00,,---,0.00,VWS V14.01,2013-08-27 20:20:00,
2013-08-27 16:25:00,82.0,67.7,29.99,SW,229,13.0,24.0,62,0.00,,---,0.00,VWS V14.01,2013-08-27 20:25:00,
2013-08-27 16:30:00,81.6,67.8,29.99,SW,219,13.0,20.0,63,0.00,,---,0.00,VWS V14.01,2013-08-27 20:30:00,
2013-08-27 16:35:00,81.5,67.7,29.99,SSW,213,13.0,23.0,63,0.00,,---,0.00,VWS V14.01,2013-08-27 20:35:00,
2013-08-27 16:40:00,81.1,67.8,29.99,SSW,202,13.0,23.0,64,0.00,,---,0.00,VWS V14.01,2013-08-27 20:40:00,
2013-08-27 16:45:00,81.1,67.8,30.00,SW,234,15.0,25.0,64,0.00,,---,0.00,VWS V14.01,2013-08-27 20:45:00,
2013-08-27 16:50:00,80.9,68.0,30.00,SSW,207,15.0,25.0,65,0.00,,---,0.00,VWS V14.01,2013-08-27 20:50:00,
2013-08-27 16:55:00,81.2,68.8,30.00,SSW,213,10.0,25.0,66,0.00,,---,0.00,VWS V14.01,2013-08-27 20:55:00,
2013-08-27 17:01:00,81.1,68.2,29.99,SSW,196,17.0,24.0,65,0.00,,---,0.00,VWS V14.01,2013-08-27 21:01:00,
2013-08-27 17:06:00,81.4,68.5,29.99,WSW,244,22.0,25.0,65,0.00,,---,0.00,VWS V14.01,2013-08-27 21:06:00,
2013-08-27 17:11:00,81.5,68.6,29.99,SW,219,17.0,26.0,65,0.00,,---,0.00,VWS V14.01,2013-08-27 21:11:00,
2013-08-27 17:16:00,81.2,67.9,29.99,SW,219,13.0,26.0,64,0.00,,---,0.00,VWS V14.01,2013-08-27 21:16:00,
2013-08-27 17:21:00,80.9,67.6,29.98,SSW,210,21.0,26.0,64,0.00,,---,0.00,VWS V14.01,2013-08-27 21:21:00,
2013-08-27 17:26:00,80.7,67.4,29.98,SW,219,12.0,26.0,64,0.00,,---,0.00,VWS V14.01,2013-08-27 21:26:00,
2013-08-27 17:31:00,80.4,67.1,29.98,SSW,205,16.0,24.0,64,0.00,,---,0.00,VWS V14.01,2013-08-27 21:31:00,
2013-08-27 17:36:00,80.4,67.6,29.98,SSW,200,12.0,25.0,65,0.00,,---,0.00,VWS V14.01,2013-08-27 21:36:00,
2013-08-27 17:42:00,80.3,67.0,29.98,SSW,201,13.0,25.0,64,0.00,,---,0.00,VWS V14.01,2013-08-27 21:42:00,
2013-08-27 17:47:00,80.2,67.8,29.97,SSW,197,15.0,25.0,66,0.00,,---,0.00,VWS V14.01,2013-08-27 21:47:00,
2013-08-27 17:52:00,80.1,66.8,29.97,SSW,211,20.0,25.0,64,0.00,,---,0.00,VWS V14.01,2013-08-27 21:52:00,
2013-08-27 17:57:00,80.3,67.0,29.97,SW,236,18.0,25.0,64,0.00,,---,0.00,VWS V14.01,2013-08-27 21:57:00,
2013-08-27 18:02:00,80.4,67.6,29.98,SW,229,18.0,22.0,65,0.00,,---,0.00,VWS V14.01,2013-08-27 22:02:00,
2013-08-27 18:07:00,80.3,67.9,29.98,SSW,211,18.0,22.0,66,0.00,,---,0.00,VWS V14.01,2013-08-27 22:07:00,
2013-08-27 18:12:00,80.2,67.8,29.98,SSW,213,17.0,23.0,66,0.00,,---,0.00,VWS V14.01,2013-08-27 22:12:00,
2013-08-27 18:17:00,80.0,67.6,29.98,WSW,237,15.0,23.0,66,0.00,,---,0.00,VWS V14.01,2013-08-27 22:17:00,
2013-08-27 18:22:00,79.9,68.0,29.97,SW,227,19.0,23.0,67,0.00,,---,0.00,VWS V14.01,2013-08-27 22:22:00,
2013-08-27 18:27:00,80.0,68.1,29.98,SW,219,11.0,12.0,67,0.00,,---,0.00,VWS V14.01,2013-08-27 22:27:00,
2013-08-27 18:32:00,79.9,68.0,29.98,SW,218,14.0,23.0,67,0.00,,---,0.00,VWS V14.01,2013-08-27 22:32:00,
2013-08-27 18:37:00,79.8,67.9,29.98,WSW,252,12.0,23.0,67,0.00,,---,0.00,VWS V14.01,2013-08-27 22:37:00,
2013-08-27 18:42:00,79.8,68.3,29.98,SW,222,19.0,23.0,68,0.00,,---,0.00,VWS V14.01,2013-08-27 22:42:00,
2013-08-27 18:47:00,79.7,68.2,29.98,SW,215,17.0,23.0,68,0.00,,---,0.00,VWS V14.01,2013-08-27 22:47:00,
2013-08-27 18:52:00,79.7,68.6,29.98,SW,230,21.0,23.0,69,0.00,,---,0.00,VWS V14.01,2013-08-27 22:52:00,
2013-08-27 18:58:00,79.6,69.0,29.98,WSW,238,12.0,20.0,70,0.00,,---,0.00,VWS V14.01,2013-08-27 22:58:00,
2013-08-27 19:03:00,79.6,69.4,29.99,SSW,211,17.0,20.0,71,0.00,,---,0.00,VWS V14.01,2013-08-27 23:03:00,
2013-08-27 19:08:00,79.6,69.0,29.99,WSW,245,9.0,20.0,70,0.00,,---,0.00,VWS V14.01,2013-08-27 23:08:00,
2013-08-27 19:13:00,79.4,68.8,29.99,SW,232,8.0,21.0,70,0.00,,---,0.00,VWS V14.01,2013-08-27 23:13:00,
2013-08-27 19:18:00,79.4,68.8,30.00,SW,228,15.0,21.0,70,0.00,,---,0.00,VWS V14.01,2013-08-27 23:18:00,
2013-08-27 19:23:00,79.3,68.7,29.99,SW,221,14.0,21.0,70,0.00,,---,0.00,VWS V14.01,2013-08-27 23:23:00,
2013-08-27 19:28:00,79.2,68.2,29.99,WSW,247,13.0,16.0,69,0.00,,---,0.00,VWS V14.01,2013-08-27 23:28:00,
2013-08-27 19:33:00,79.1,68.1,29.99,SW,217,18.0,18.0,69,0.00,,---,0.00,VWS V14.01,2013-08-27 23:33:00,
2013-08-27 19:38:00,79.1,68.5,29.99,SSW,209,11.0,18.0,70,0.00,,---,0.00,VWS V14.01,2013-08-27 23:38:00,
2013-08-27 19:43:00,78.9,67.4,29.99,SW,224,12.0,18.0,68,0.00,,---,0.00,VWS V14.01,2013-08-27 23:43:00,
2013-08-27 19:48:00,78.9,67.0,30.00,SW,233,6.0,18.0,67,0.00,,---,0.00,VWS V14.01,2013-08-27 23:48:00,
2013-08-27 19:54:00,78.8,66.9,29.99,WSW,246,7.0,18.0,67,0.00,,---,0.00,VWS V14.01,2013-08-27 23:54:00,
2013-08-27 19:59:00,78.8,67.4,29.99,WSW,246,5.0,14.0,68,0.00,,---,0.00,VWS V14.01,2013-08-27 23:59:00,
2013-08-27 20:04:00,78.6,67.2,30.00,West,274,7.0,15.0,68,0.00,,---,0.00,VWS V14.01,2013-08-28 00:04:00,
2013-08-27 20:09:00,78.5,67.5,30.00,West,271,9.0,15.0,69,0.00,,---,0.00,VWS V14.01,2013-08-28 00:09:00,
2013-08-27 20:14:00,78.4,67.0,30.00,West,272,6.0,15.0,68,0.00,,---,0.00,VWS V14.01,2013-08-28 00:14:00,
2013-08-27 20:19:00,78.2,66.8,30.00,West,259,8.0,15.0,68,0.00,,---,0.00,VWS V14.01,2013-08-28 00:19:00,
2013-08-27 20:24:00,78.1,66.7,30.00,WSW,252,9.0,15.0,68,0.00,,---,0.00,VWS V14.01,2013-08-28 00:24:00,
2013-08-27 20:29:00,78.0,66.2,30.00,WSW,246,6.0,13.0,67,0.00,,---,0.00,VWS V14.01,2013-08-28 00:29:00,
2013-08-27 20:34:00,77.9,66.5,30.00,SW,225,8.0,13.0,68,0.00,,---,0.00,VWS V14.01,2013-08-28 00:34:00,
2013-08-27 20:39:00,77.8,66.4,30.00,WSW,252,12.0,13.0,68,0.00,,---,0.00,VWS V14.01,2013-08-28 00:39:00,
2013-08-27 20:44:00,77.8,66.8,30.00,West,266,4.0,13.0,69,0.00,,---,0.00,VWS V14.01,2013-08-28 00:44:00,
2013-08-27 20:49:00,77.7,66.3,30.00,SW,230,6.0,13.0,68,0.00,,---,0.00,VWS V14.01,2013-08-28 00:49:00,
2013-08-27 20:55:00,77.6,66.6,30.00,WSW,253,4.0,13.0,69,0.00,,---,0.00,VWS V14.01,2013-08-28 00:55:00,
2013-08-27 21:00:00,77.5,66.5,30.00,West,268,9.0,10.0,69,0.00,,---,0.00,VWS V14.01,2013-08-28 01:00:00,
2013-08-27 21:05:00,77.4,66.9,30.00,WSW,240,4.0,11.0,70,0.00,,---,0.00,VWS V14.01,2013-08-28 01:05:00,
2013-08-27 21:10:00,77.3,66.8,30.00,West,265,6.0,11.0,70,0.00,,---,0.00,VWS V14.01,2013-08-28 01:10:00,
2013-08-27 21:15:00,77.2,66.7,30.00,West,272,5.0,11.0,70,0.00,,---,0.00,VWS V14.01,2013-08-28 01:15:00,
2013-08-27 21:20:00,77.2,66.7,30.00,WSW,254,12.0,12.0,70,0.00,,---,0.00,VWS V14.01,2013-08-28 01:20:00,
2013-08-27 21:25:00,77.2,67.1,30.00,West,264,5.0,12.0,71,0.00,,---,0.00,VWS V14.01,2013-08-28 01:25:00,
2013-08-27 21:30:00,77.2,67.1,30.00,West,263,6.0,11.0,71,0.00,,---,0.00,VWS V14.01,2013-08-28 01:30:00,
2013-08-27 21:36:00,77.2,67.5,30.00,WSW,251,6.0,11.0,72,0.00,,---,0.00,VWS V14.01,2013-08-28 01:36:00,
2013-08-27 21:41:00,77.2,67.5,30.00,SW,218,7.0,11.0,72,0.00,,---,0.00,VWS V14.01,2013-08-28 01:41:00,
2013-08-27 21:46:00,77.1,67.4,30.00,SW,229,6.0,11.0,72,0.00,,---,0.00,VWS V14.01,2013-08-28 01:46:00,
2013-08-27 21:51:00,77.0,66.9,30.00,West,270,9.0,12.0,71,0.00,,---,0.00,VWS V14.01,2013-08-28 01:51:00,
2013-08-27 21:56:00,77.1,67.4,30.00,WSW,249,6.0,13.0,72,0.00,,---,0.00,VWS V14.01,2013-08-28 01:56:00,
2013-08-27 22:01:00,77.1,67.4,30.01,WSW,240,6.0,8.0,72,0.00,,---,0.00,VWS V14.01,2013-08-28 02:01:00,
2013-08-27 22:06:00,77.0,67.3,30.00,WSW,242,6.0,10.0,72,0.00,,---,0.00,VWS V14.01,2013-08-28 02:06:00,
2013-08-27 22:11:00,77.0,67.7,30.01,West,260,8.0,12.0,73,0.00,,---,0.00,VWS V14.01,2013-08-28 02:11:00,
2013-08-27 22:17:00,77.0,67.7,30.01,West,271,4.0,12.0,73,0.00,,---,0.00,VWS V14.01,2013-08-28 02:17:00,
2013-08-27 22:22:00,77.0,67.7,30.01,WSW,240,9.0,15.0,73,0.00,,---,0.00,VWS V14.01,2013-08-28 02:22:00,
2013-08-27 22:27:00,77.1,67.8,30.01,West,268,10.0,15.0,73,0.00,,---,0.00,VWS V14.01,2013-08-28 02:27:00,
2013-08-27 22:32:00,77.2,67.9,30.01,West,267,8.0,16.0,73,0.00,,---,0.00,VWS V14.01,2013-08-28 02:32:00,
2013-08-27 22:37:00,77.3,68.0,30.01,West,267,7.0,16.0,73,0.00,,---,0.00,VWS V14.01,2013-08-28 02:37:00,
2013-08-27 22:42:00,77.3,68.0,30.01,SSW,211,10.0,16.0,73,0.00,,---,0.00,VWS V14.01,2013-08-28 02:42:00,
2013-08-27 22:47:00,77.3,68.0,30.01,WSW,249,6.0,16.0,73,0.00,,---,0.00,VWS V14.01,2013-08-28 02:47:00,
2013-08-27 22:52:00,77.3,68.0,30.01,SW,227,6.0,16.0,73,0.00,,---,0.00,VWS V14.01,2013-08-28 02:52:00,
2013-08-27 22:58:00,77.1,67.8,30.01,WSW,244,10.0,10.0,73,0.00,,---,0.00,VWS V14.01,2013-08-28 02:58:00,
2013-08-27 23:03:00,77.0,67.7,30.01,WSW,247,6.0,11.0,73,0.00,,---,0.00,VWS V14.01,2013-08-28 03:03:00,
2013-08-27 23:08:00,76.9,68.0,30.01,SW,222,5.0,13.0,74,0.00,,---,0.00,VWS V14.01,2013-08-28 03:08:00,
2013-08-27 23:13:00,76.8,67.9,30.01,WSW,248,5.0,13.0,74,0.00,,---,0.00,VWS V14.01,2013-08-28 03:13:00,
2013-08-27 23:18:00,76.6,67.7,30.01,SW,232,6.0,13.0,74,0.00,,---,0.00,VWS V14.01,2013-08-28 03:18:00,
2013-08-27 23:23:00,76.5,68.0,30.01,SW,225,5.0,13.0,75,0.00,,---,0.00,VWS V14.01,2013-08-28 03:23:00,
2013-08-27 23:28:00,76.5,68.0,30.01,SW,232,3.0,8.0,75,0.00,,---,0.00,VWS V14.01,2013-08-28 03:28:00,
2013-08-27 23:33:00,76.6,68.1,30.01,WSW,238,5.0,9.0,75,0.00,,---,0.00,VWS V14.01,2013-08-28 03:33:00,
2013-08-27 23:38:00,76.6,68.1,30.01,WSW,258,7.0,10.0,75,0.00,,---,0.00,VWS V14.01,2013-08-28 03:38:00,
2013-08-27 23:43:00,76.7,67.8,30.01,West,267,6.0,10.0,74,0.00,,---,0.00,VWS V14.01,2013-08-28 03:43:00,
2013-08-27 23:49:00,76.7,67.8,30.01,West,259,10.0,11.0,74,0.00,,---,0.00,VWS V14.01,2013-08-28 03:49:00,
2013-08-27 23:54:00,76.6,67.7,30.01,West,273,5.0,11.0,74,0.00,,---,0.00,VWS V14.01,2013-08-28 03:54:00,
2013-08-27 23:59:00,76.6,67.7,30.01,SW,234,5.0,5.0,74,0.00,,---,0.00,VWS V14.01,2013-08-28 03:59:00,